CCA878 EKCH-ZBAA
Flight info
| Callsign | CCA878 |
|---|---|
| Flight time | N/A |
| Altitude | 37000 |
| Route | SIMEG8A SIMEG L987 ETRUS DCT KOLJA DCT EVONA DCT NETNA DCT TUKMA P989 MEGAS/K0904F370 P989 OBIBA P997 AKUGI T635 SADER T580 ADMUR G117 XV R229 BA R104 GINOM/K0895S1130 Y655 INTIK A575 LHT B458 BIKUT W69 GUVBA GUVBA6J |
| Aircraft | A359/H-SDE2E3GHIJ3J4J5LM1ORWXY/LB1D1 |
Departure
| Time | 2026-04-22 09:50 |
|---|---|
| Airport | Copenhagen Kastrup Airport (EKCH) |
Arrival
| Time | N/A |
|---|---|
| Airport | Beijing Capital International Airport (ZBAA) |
| Time | Latitude | Longitude | Altitude | Speed | Heading |
|---|---|---|---|---|---|
| 2026-04-22 09:09 | 55.62432 | 12.65058 | 30 ft | 0 kts | 269° |
| 2026-04-22 09:13 | 55.62432 | 12.65059 | 30 ft | 0 kts | 269° |
| 2026-04-22 09:35 | 55.62432 | 12.65072 | 28 ft | 4 kts | 269° |
| 2026-04-22 09:35 | 55.62433 | 12.65120 | 27 ft | 4 kts | 269° |
| 2026-04-22 09:35 | 55.62434 | 12.65161 | 27 ft | 4 kts | 249° |
| 2026-04-22 09:35 | 55.62439 | 12.65182 | 27 ft | 4 kts | 198° |
| 2026-04-22 09:36 | 55.62462 | 12.65187 | 28 ft | 4 kts | 178° |
| 2026-04-22 09:36 | 55.62483 | 12.65186 | 29 ft | 4 kts | 179° |
| 2026-04-22 09:36 | 55.62510 | 12.65185 | 27 ft | 4 kts | 179° |
| 2026-04-22 09:36 | 55.62522 | 12.65184 | 27 ft | 0 kts | 179° |
| 2026-04-22 09:40 | 55.62517 | 12.65184 | 30 ft | 3 kts | 178° |
| 2026-04-22 09:40 | 55.62482 | 12.65186 | 30 ft | 0 kts | 179° |
| 2026-04-22 09:40 | 55.62465 | 12.65187 | 30 ft | 4 kts | 178° |
| 2026-04-22 09:41 | 55.62453 | 12.65187 | 30 ft | 0 kts | 178° |
| 2026-04-22 09:41 | 55.62417 | 12.65189 | 30 ft | 13 kts | 178° |
| 2026-04-22 09:41 | 55.62349 | 12.65192 | 30 ft | 10 kts | 179° |
| 2026-04-22 09:42 | 55.62330 | 12.65193 | 30 ft | 0 kts | 178° |
| 2026-04-22 09:42 | 55.62327 | 12.65193 | 30 ft | 1 kts | 178° |
| 2026-04-22 09:42 | 55.62320 | 12.65194 | 30 ft | 2 kts | 178° |
| 2026-04-22 09:42 | 55.62309 | 12.65194 | 30 ft | 2 kts | 178° |
| 2026-04-22 09:43 | 55.62307 | 12.65194 | 30 ft | 1 kts | 178° |
| 2026-04-22 09:43 | 55.62281 | 12.65197 | 30 ft | 7 kts | 177° |
| 2026-04-22 09:43 | 55.62207 | 12.65172 | 30 ft | 14 kts | 205° |
| 2026-04-22 09:44 | 55.62119 | 12.65075 | 30 ft | 16 kts | 213° |
| 2026-04-22 09:44 | 55.62023 | 12.64963 | 30 ft | 17 kts | 213° |
| 2026-04-22 09:44 | 55.61922 | 12.64846 | 29 ft | 18 kts | 213° |
| 2026-04-22 09:44 | 55.61816 | 12.64723 | 30 ft | 19 kts | 213° |
| 2026-04-22 09:45 | 55.61705 | 12.64599 | 30 ft | 19 kts | 212° |
| 2026-04-22 09:45 | 55.61592 | 12.64471 | 30 ft | 20 kts | 213° |
| 2026-04-22 09:45 | 55.61473 | 12.64333 | 30 ft | 21 kts | 213° |
| 2026-04-22 09:45 | 55.61353 | 12.64194 | 30 ft | 21 kts | 213° |
| 2026-04-22 09:46 | 55.61242 | 12.64066 | 30 ft | 19 kts | 213° |
| 2026-04-22 09:46 | 55.61132 | 12.63941 | 30 ft | 19 kts | 213° |
| 2026-04-22 09:46 | 55.61017 | 12.63808 | 30 ft | 20 kts | 213° |
| 2026-04-22 09:46 | 55.60898 | 12.63671 | 30 ft | 21 kts | 213° |
| 2026-04-22 09:47 | 55.60778 | 12.63534 | 30 ft | 21 kts | 213° |
| 2026-04-22 09:47 | 55.60656 | 12.63394 | 30 ft | 21 kts | 213° |
| 2026-04-22 09:47 | 55.60559 | 12.63245 | 30 ft | 17 kts | 223° |
| 2026-04-22 09:47 | 55.60480 | 12.63132 | 30 ft | 14 kts | 206° |
| 2026-04-22 09:48 | 55.60390 | 12.63190 | 30 ft | 16 kts | 133° |
| 2026-04-22 09:48 | 55.60339 | 12.63317 | 32 ft | 9 kts | 95° |
| 2026-04-22 09:48 | 55.60361 | 12.63372 | 32 ft | 0 kts | 42° |
| 2026-04-22 09:49 | 55.60378 | 12.63399 | 31 ft | 20 kts | 41° |
| 2026-04-22 09:49 | 55.60660 | 12.63840 | 31 ft | 86 kts | 41° |
| 2026-04-22 09:49 | 55.61246 | 12.64746 | 31 ft | 139 kts | 41° |
| 2026-04-22 09:49 | 55.62087 | 12.66106 | 227 ft | 170 kts | 40° |
| 2026-04-22 09:50 | 55.62887 | 12.67537 | 1069 ft | 157 kts | 41° |
| 2026-04-22 09:50 | 55.63628 | 12.68906 | 1841 ft | 153 kts | 40° |
| 2026-04-22 09:50 | 55.64416 | 12.70287 | 2092 ft | 167 kts | 37° |
| 2026-04-22 09:50 | 55.65362 | 12.71619 | 2326 ft | 180 kts | 31° |
| 2026-04-22 09:51 | 55.66425 | 12.72975 | 2584 ft | 196 kts | 31° |
| 2026-04-22 09:51 | 55.67565 | 12.74505 | 2802 ft | 216 kts | 33° |
| 2026-04-22 09:51 | 55.68783 | 12.76243 | 3104 ft | 232 kts | 34° |
| 2026-04-22 09:51 | 55.70045 | 12.78100 | 3594 ft | 240 kts | 35° |
| 2026-04-22 09:52 | 55.71329 | 12.80038 | 4150 ft | 245 kts | 37° |
| 2026-04-22 09:52 | 55.72388 | 12.82479 | 4572 ft | 260 kts | 60° |
| 2026-04-22 09:52 | 55.72643 | 12.85711 | 5149 ft | 273 kts | 92° |
| 2026-04-22 09:52 | 55.71917 | 12.88865 | 5732 ft | 283 kts | 123° |
| 2026-04-22 09:53 | 55.70372 | 12.91057 | 6325 ft | 289 kts | 153° |
| 2026-04-22 09:53 | 55.68414 | 12.91697 | 6853 ft | 292 kts | 183° |
| 2026-04-22 09:53 | 55.66472 | 12.90807 | 7391 ft | 290 kts | 202° |
| 2026-04-22 09:53 | 55.64469 | 12.90092 | 7777 ft | 296 kts | 182° |
| 2026-04-22 09:54 | 55.62430 | 12.90266 | 8378 ft | 296 kts | 173° |
| 2026-04-22 09:54 | 55.60469 | 12.91424 | 8836 ft | 299 kts | 147° |
| 2026-04-22 09:54 | 55.58870 | 12.93695 | 9513 ft | 294 kts | 134° |
| 2026-04-22 09:54 | 55.57368 | 12.96204 | 10184 ft | 296 kts | 133° |
| 2026-04-22 09:55 | 55.55857 | 12.98735 | 10617 ft | 305 kts | 133° |
| 2026-04-22 09:55 | 55.54287 | 13.01369 | 10858 ft | 318 kts | 133° |
| 2026-04-22 09:55 | 55.52639 | 13.04135 | 11129 ft | 332 kts | 134° |
| 2026-04-22 09:55 | 55.50954 | 13.06963 | 11411 ft | 344 kts | 134° |
| 2026-04-22 09:56 | 55.49195 | 13.09911 | 11699 ft | 355 kts | 134° |
| 2026-04-22 09:56 | 55.47377 | 13.12957 | 11996 ft | 365 kts | 134° |
| 2026-04-22 09:56 | 55.45512 | 13.16076 | 12276 ft | 375 kts | 134° |
| 2026-04-22 09:56 | 55.43596 | 13.19275 | 12631 ft | 382 kts | 134° |
| 2026-04-22 09:57 | 55.41652 | 13.22517 | 13082 ft | 386 kts | 134° |
| 2026-04-22 09:57 | 55.39687 | 13.25787 | 13558 ft | 389 kts | 134° |
| 2026-04-22 09:57 | 55.37715 | 13.29066 | 14011 ft | 392 kts | 134° |
| 2026-04-22 09:57 | 55.35724 | 13.32373 | 14425 ft | 395 kts | 134° |
| 2026-04-22 09:58 | 55.33722 | 13.35697 | 14867 ft | 397 kts | 134° |
| 2026-04-22 09:58 | 55.31731 | 13.38996 | 15303 ft | 398 kts | 134° |
| 2026-04-22 09:58 | 55.29729 | 13.42391 | 15716 ft | 399 kts | 131° |
| 2026-04-22 09:58 | 55.28004 | 13.46201 | 16106 ft | 398 kts | 119° |
| 2026-04-22 09:59 | 55.26818 | 13.50537 | 16537 ft | 394 kts | 107° |
| 2026-04-22 09:59 | 55.26188 | 13.55211 | 16975 ft | 392 kts | 95° |
| 2026-04-22 09:59 | 55.26091 | 13.59980 | 17394 ft | 391 kts | 85° |
| 2026-04-22 09:59 | 55.26374 | 13.64732 | 17803 ft | 391 kts | 79° |
| 2026-04-22 10:00 | 55.26878 | 13.69420 | 18205 ft | 393 kts | 76° |
| 2026-04-22 10:00 | 55.27482 | 13.74106 | 18587 ft | 395 kts | 75° |
| 2026-04-22 10:00 | 55.28102 | 13.78764 | 18923 ft | 397 kts | 75° |
| 2026-04-22 10:00 | 55.28712 | 13.83507 | 19259 ft | 399 kts | 76° |
| 2026-04-22 10:01 | 55.29290 | 13.88272 | 19602 ft | 401 kts | 76° |
| 2026-04-22 10:01 | 55.29845 | 13.93094 | 19942 ft | 403 kts | 77° |
| 2026-04-22 10:01 | 55.30383 | 13.97936 | 20269 ft | 405 kts | 77° |
| 2026-04-22 10:01 | 55.30914 | 14.02819 | 20601 ft | 406 kts | 78° |
| 2026-04-22 10:02 | 55.31440 | 14.07698 | 20924 ft | 408 kts | 78° |
| 2026-04-22 10:02 | 55.31963 | 14.12553 | 21250 ft | 410 kts | 78° |
| 2026-04-22 10:02 | 55.32494 | 14.17494 | 21580 ft | 412 kts | 78° |
| 2026-04-22 10:02 | 55.33030 | 14.22479 | 21904 ft | 414 kts | 78° |
| 2026-04-22 10:03 | 55.33564 | 14.27455 | 22221 ft | 416 kts | 78° |
| 2026-04-22 10:03 | 55.34100 | 14.32464 | 22545 ft | 418 kts | 78° |
| 2026-04-22 10:03 | 55.34637 | 14.37504 | 22922 ft | 419 kts | 78° |